sensor_id;sensor_type;location;lat;lon;timestamp;pressure;altitude;pressure_sealevel;temperature;humidity
62600;BME280;48671;48.922;2.346;2023-05-21T00:01:49;101412.31;;;17.71;53.14
62600;BME280;48671;48.922;2.346;2023-05-21T00:04:14;101421.72;;;17.75;53.07
62600;BME280;48671;48.922;2.346;2023-05-21T00:06:39;101405.91;;;17.61;53.08
62600;BME280;48671;48.922;2.346;2023-05-21T00:09:05;101415.31;;;17.65;53.30
62600;BME280;48671;48.922;2.346;2023-05-21T00:11:31;101406.91;;;17.59;53.03
62600;BME280;48671;48.922;2.346;2023-05-21T00:13:57;101423.38;;;17.62;54.47
62600;BME280;48671;48.922;2.346;2023-05-21T00:16:23;101413.97;;;17.58;53.67
62600;BME280;48671;48.922;2.346;2023-05-21T00:18:49;101407.09;;;17.55;53.62
62600;BME280;48671;48.922;2.346;2023-05-21T00:21:16;101400.25;;;17.53;53.26
62600;BME280;48671;48.922;2.346;2023-05-21T00:23:44;101416.69;;;17.57;53.88
62600;BME280;48671;48.922;2.346;2023-05-21T00:26:10;101397.19;;;17.45;53.71
62600;BME280;48671;48.922;2.346;2023-05-21T00:28:35;101392.69;;;17.47;53.45
62600;BME280;48671;48.922;2.346;2023-05-21T00:31:00;101397.84;;;17.48;54.03
62600;BME280;48671;48.922;2.346;2023-05-21T00:33:26;101395.38;;;17.45;54.26
62600;BME280;48671;48.922;2.346;2023-05-21T00:35:53;101398.78;;;17.47;54.18
62600;BME280;48671;48.922;2.346;2023-05-21T00:38:18;101403.53;;;17.57;54.01
62600;BME280;48671;48.922;2.346;2023-05-21T00:40:43;101390.72;;;17.50;53.73
62600;BME280;48671;48.922;2.346;2023-05-21T00:43:09;101377.81;;;17.46;54.44
62600;BME280;48671;48.922;2.346;2023-05-21T00:45:35;101390.44;;;17.55;53.79
62600;BME280;48671;48.922;2.346;2023-05-21T00:48:02;101378.41;;;17.51;53.69
62600;BME280;48671;48.922;2.346;2023-05-21T00:50:28;101375.28;;;17.44;54.16
62600;BME280;48671;48.922;2.346;2023-05-21T00:52:55;101375.47;;;17.41;54.02
62600;BME280;48671;48.922;2.346;2023-05-21T00:55:20;101376.31;;;17.42;54.15
62600;BME280;48671;48.922;2.346;2023-05-21T00:57:46;101370.19;;;17.41;54.50
62600;BME280;48671;48.922;2.346;2023-05-21T01:00:13;101370.03;;;17.44;54.16
62600;BME280;48671;48.922;2.346;2023-05-21T01:02:38;101372.66;;;17.44;53.84
62600;BME280;48671;48.922;2.346;2023-05-21T01:05:04;101378.75;;;17.45;54.50
62600;BME280;48671;48.922;2.346;2023-05-21T01:07:32;101374.84;;;17.36;54.21
62600;BME280;48671;48.922;2.346;2023-05-21T01:10:00;101375.91;;;17.34;54.10
62600;BME280;48671;48.922;2.346;2023-05-21T01:12:26;101378.59;;;17.32;54.11
62600;BME280;48671;48.922;2.346;2023-05-21T01:14:52;101359.13;;;17.20;54.36
62600;BME280;48671;48.922;2.346;2023-05-21T01:17:17;101360.38;;;17.13;55.13
62600;BME280;48671;48.922;2.346;2023-05-21T01:19:45;101377.88;;;17.14;55.10
62600;BME280;48671;48.922;2.346;2023-05-21T01:22:11;101375.25;;;17.14;55.24
62600;BME280;48671;48.922;2.346;2023-05-21T01:24:38;101362.59;;;17.05;55.17
62600;BME280;48671;48.922;2.346;2023-05-21T01:27:04;101371.44;;;17.04;55.23
62600;BME280;48671;48.922;2.346;2023-05-21T01:29:31;101368.19;;;16.99;55.81
62600;BME280;48671;48.922;2.346;2023-05-21T01:37:26;101376.56;;;16.90;55.94
62600;BME280;48671;48.922;2.346;2023-05-21T01:39:57;101374.72;;;16.92;56.14
62600;BME280;48671;48.922;2.346;2023-05-21T01:42:24;101373.03;;;16.91;56.83
62600;BME280;48671;48.922;2.346;2023-05-21T01:44:55;101378.19;;;16.92;55.86
62600;BME280;48671;48.922;2.346;2023-05-21T01:47:22;101380.81;;;16.92;56.15
62600;BME280;48671;48.922;2.346;2023-05-21T01:49:49;101370.31;;;16.92;55.54
62600;BME280;48671;48.922;2.346;2023-05-21T01:52:14;101379.88;;;16.93;55.75
62600;BME280;48671;48.922;2.346;2023-05-21T01:54:40;101376.41;;;16.93;56.12
62600;BME280;48671;48.922;2.346;2023-05-21T01:57:05;101375.72;;;16.89;56.33
62600;BME280;48671;48.922;2.346;2023-05-21T01:59:31;101368.84;;;16.87;56.40
62600;BME280;48671;48.922;2.346;2023-05-21T02:01:57;101365.47;;;16.84;56.59
62600;BME280;48671;48.922;2.346;2023-05-21T02:04:22;101377.78;;;16.84;56.30
62600;BME280;48671;48.922;2.346;2023-05-21T02:06:47;101370.97;;;16.80;56.64
62600;BME280;48671;48.922;2.346;2023-05-21T02:09:13;101376.16;;;16.81;56.18
62600;BME280;48671;48.922;2.346;2023-05-21T02:11:38;101381.41;;;16.81;56.75
62600;BME280;48671;48.922;2.346;2023-05-21T02:14:03;101378.09;;;16.78;57.03
62600;BME280;48671;48.922;2.346;2023-05-21T02:16:29;101370.59;;;16.70;56.40
62600;BME280;48671;48.922;2.346;2023-05-21T02:18:54;101364.59;;;16.68;56.67
62600;BME280;48671;48.922;2.346;2023-05-21T02:21:21;101374.47;;;16.63;56.93
62600;BME280;48671;48.922;2.346;2023-05-21T02:23:46;101376.53;;;16.58;57.36
62600;BME280;48671;48.922;2.346;2023-05-21T02:26:12;101372.84;;;16.60;56.79
62600;BME280;48671;48.922;2.346;2023-05-21T02:28:37;101371.50;;;16.53;57.58
62600;BME280;48671;48.922;2.346;2023-05-21T02:31:02;101379.47;;;16.52;57.83
62600;BME280;48671;48.922;2.346;2023-05-21T02:33:28;101375.91;;;16.53;57.68
62600;BME280;48671;48.922;2.346;2023-05-21T02:35:53;101379.16;;;16.58;57.72
62600;BME280;48671;48.922;2.346;2023-05-21T02:38:18;101385.16;;;16.60;57.33
62600;BME280;48671;48.922;2.346;2023-05-21T02:40:48;101381.59;;;16.61;57.48
62600;BME280;48671;48.922;2.346;2023-05-21T02:43:14;101380.75;;;16.60;57.33
62600;BME280;48671;48.922;2.346;2023-05-21T02:45:39;101382.63;;;16.58;56.96
62600;BME280;48671;48.922;2.346;2023-05-21T02:48:04;101385.25;;;16.58;57.38
62600;BME280;48671;48.922;2.346;2023-05-21T02:50:30;101374.91;;;16.55;57.30
62600;BME280;48671;48.922;2.346;2023-05-21T02:52:55;101378.63;;;16.51;58.57
62600;BME280;48671;48.922;2.346;2023-05-21T02:55:20;101378.94;;;16.45;58.41
62600;BME280;48671;48.922;2.346;2023-05-21T02:57:46;101387.72;;;16.44;57.51
62600;BME280;48671;48.922;2.346;2023-05-21T03:00:12;101376.00;;;16.34;57.77
62600;BME280;48671;48.922;2.346;2023-05-21T03:02:38;101383.00;;;16.35;58.10
62600;BME280;48671;48.922;2.346;2023-05-21T03:05:03;101370.34;;;16.26;58.17
62600;BME280;48671;48.922;2.346;2023-05-21T03:07:29;101376.28;;;16.29;57.70
62600;BME280;48671;48.922;2.346;2023-05-21T03:09:54;101383.53;;;16.24;58.89
62600;BME280;48671;48.922;2.346;2023-05-21T03:12:20;101382.16;;;16.17;58.80
62600;BME280;48671;48.922;2.346;2023-05-21T03:14:45;101376.22;;;16.13;58.45
62600;BME280;48671;48.922;2.346;2023-05-21T03:17:11;101387.72;;;16.11;58.63
62600;BME280;48671;48.922;2.346;2023-05-21T03:19:39;101387.88;;;16.08;59.58
62600;BME280;48671;48.922;2.346;2023-05-21T03:22:05;101385.53;;;16.02;58.66
62600;BME280;48671;48.922;2.346;2023-05-21T03:24:31;101393.56;;;15.99;59.86
62600;BME280;48671;48.922;2.346;2023-05-21T03:26:57;101397.38;;;15.93;59.04
62600;BME280;48671;48.922;2.346;2023-05-21T03:29:25;101397.69;;;15.87;59.41
62600;BME280;48671;48.922;2.346;2023-05-21T03:31:54;101397.00;;;15.83;59.71
62600;BME280;48671;48.922;2.346;2023-05-21T03:34:19;101404.78;;;15.85;59.89
62600;BME280;48671;48.922;2.346;2023-05-21T03:36:46;101403.13;;;15.82;59.94
62600;BME280;48671;48.922;2.346;2023-05-21T03:39:11;101399.75;;;15.80;60.09
62600;BME280;48671;48.922;2.346;2023-05-21T03:41:37;101398.97;;;15.78;60.14
62600;BME280;48671;48.922;2.346;2023-05-21T03:44:02;101389.41;;;15.77;59.97
62600;BME280;48671;48.922;2.346;2023-05-21T03:46:27;101388.63;;;15.75;59.98
62600;BME280;48671;48.922;2.346;2023-05-21T03:48:53;101392.03;;;15.77;60.37
62600;BME280;48671;48.922;2.346;2023-05-21T03:51:18;101396.59;;;15.74;60.74
62600;BME280;48671;48.922;2.346;2023-05-21T03:53:44;101392.44;;;15.70;60.38
62600;BME280;48671;48.922;2.346;2023-05-21T03:56:10;101402.97;;;15.68;59.62
62600;BME280;48671;48.922;2.346;2023-05-21T03:58:35;101405.97;;;15.60;60.38
62600;BME280;48671;48.922;2.346;2023-05-21T04:01:01;101402.50;;;15.60;61.01
62600;BME280;48671;48.922;2.346;2023-05-21T04:03:26;101395.63;;;15.57;60.63
62600;BME280;48671;48.922;2.346;2023-05-21T04:05:53;101408.88;;;15.54;60.97
62600;BME280;48671;48.922;2.346;2023-05-21T04:08:18;101407.09;;;15.55;60.65
62600;BME280;48671;48.922;2.346;2023-05-21T04:10:43;101408.31;;;15.48;61.20
62600;BME280;48671;48.922;2.346;2023-05-21T04:13:09;101407.53;;;15.45;61.29
62600;BME280;48671;48.922;2.346;2023-05-21T04:15:34;101421.34;;;15.49;61.16
62600;BME280;48671;48.922;2.346;2023-05-21T04:17:59;101406.13;;;15.38;61.26
62600;BME280;48671;48.922;2.346;2023-05-21T04:20:25;101412.88;;;15.44;61.17
62600;BME280;48671;48.922;2.346;2023-05-21T04:22:50;101413.84;;;15.41;61.63
62600;BME280;48671;48.922;2.346;2023-05-21T04:25:16;101410.44;;;15.39;61.65
62600;BME280;48671;48.922;2.346;2023-05-21T04:27:41;101414.78;;;15.40;61.29
62600;BME280;48671;48.922;2.346;2023-05-21T04:30:08;101401.13;;;15.34;61.17
62600;BME280;48671;48.922;2.346;2023-05-21T04:32:33;101412.47;;;15.34;61.27
62600;BME280;48671;48.922;2.346;2023-05-21T04:34:59;101421.97;;;15.37;62.83
62600;BME280;48671;48.922;2.346;2023-05-21T04:37:25;101419.47;;;15.34;61.73
62600;BME280;48671;48.922;2.346;2023-05-21T04:39:52;101428.75;;;15.41;62.15
62600;BME280;48671;48.922;2.346;2023-05-21T04:42:18;101422.72;;;15.39;62.63
62600;BME280;48671;48.922;2.346;2023-05-21T04:44:44;101423.69;;;15.36;61.20
62600;BME280;48671;48.922;2.346;2023-05-21T04:47:09;101421.88;;;15.38;61.69
62600;BME280;48671;48.922;2.346;2023-05-21T04:49:36;101440.88;;;15.43;61.68
62600;BME280;48671;48.922;2.346;2023-05-21T04:52:02;101420.03;;;15.40;61.36
62600;BME280;48671;48.922;2.346;2023-05-21T04:54:27;101435.16;;;15.53;60.89
62600;BME280;48671;48.922;2.346;2023-05-21T04:56:53;101438.72;;;15.52;61.83
62600;BME280;48671;48.922;2.346;2023-05-21T04:59:18;101436.09;;;15.52;61.57
62600;BME280;48671;48.922;2.346;2023-05-21T05:01:44;101438.72;;;15.52;61.20
62600;BME280;48671;48.922;2.346;2023-05-21T05:04:10;101427.28;;;15.53;61.11
62600;BME280;48671;48.922;2.346;2023-05-21T05:06:37;101433.25;;;15.56;61.72
62600;BME280;48671;48.922;2.346;2023-05-21T05:09:03;101416.03;;;15.51;61.56
62600;BME280;48671;48.922;2.346;2023-05-21T05:11:28;101423.78;;;15.54;61.28
62600;BME280;48671;48.922;2.346;2023-05-21T05:13:54;101416.09;;;15.49;61.46
62600;BME280;48671;48.922;2.346;2023-05-21T05:16:19;101418.44;;;15.55;61.12
62600;BME280;48671;48.922;2.346;2023-05-21T05:18:58;101417.59;;;15.55;61.00
62600;BME280;48671;48.922;2.346;2023-05-21T05:21:23;101416.81;;;15.53;61.11
62600;BME280;48671;48.922;2.346;2023-05-21T05:23:48;101414.88;;;15.56;60.90
62600;BME280;48671;48.922;2.346;2023-05-21T05:26:14;101426.25;;;15.57;61.16
62600;BME280;48671;48.922;2.346;2023-05-21T05:28:39;101422.69;;;15.58;61.11
62600;BME280;48671;48.922;2.346;2023-05-21T05:31:04;101425.78;;;15.66;61.29
62600;BME280;48671;48.922;2.346;2023-05-21T05:33:31;101414.31;;;15.68;61.30
62600;BME280;48671;48.922;2.346;2023-05-21T05:35:56;101442.50;;;15.82;60.75
62600;BME280;48671;48.922;2.346;2023-05-21T05:38:21;101422.75;;;15.75;60.99
62600;BME280;48671;48.922;2.346;2023-05-21T05:40:47;101424.06;;;15.84;61.08
62600;BME280;48671;48.922;2.346;2023-05-21T05:43:12;101434.19;;;15.91;60.59
62600;BME280;48671;48.922;2.346;2023-05-21T05:45:37;101442.84;;;15.94;61.21
62600;BME280;48671;48.922;2.346;2023-05-21T05:48:03;101431.19;;;15.99;60.99
62600;BME280;48671;48.922;2.346;2023-05-21T05:50:28;101437.69;;;16.09;60.61
62600;BME280;48671;48.922;2.346;2023-05-21T05:52:53;101431.41;;;16.12;60.52
62600;BME280;48671;48.922;2.346;2023-05-21T05:55:19;101437.28;;;16.17;60.49
62600;BME280;48671;48.922;2.346;2023-05-21T05:57:46;101429.25;;;16.20;59.93
62600;BME280;48671;48.922;2.346;2023-05-21T06:00:11;101435.72;;;16.30;60.30
62600;BME280;48671;48.922;2.346;2023-05-21T06:02:37;101425.91;;;16.34;59.80
62600;BME280;48671;48.922;2.346;2023-05-21T06:05:02;101433.31;;;16.43;59.49
62600;BME280;48671;48.922;2.346;2023-05-21T06:07:28;101433.47;;;16.40;59.61
62600;BME280;48671;48.922;2.346;2023-05-21T06:09:53;101435.53;;;16.51;59.20
62600;BME280;48671;48.922;2.346;2023-05-21T06:12:19;101435.91;;;16.60;59.16
62600;BME280;48671;48.922;2.346;2023-05-21T06:14:44;101440.16;;;16.63;58.90
62600;BME280;48671;48.922;2.346;2023-05-21T06:17:10;101429.59;;;16.65;58.94
62600;BME280;48671;48.922;2.346;2023-05-21T06:19:36;101431.69;;;16.58;59.11
62600;BME280;48671;48.922;2.346;2023-05-21T06:22:01;101432.84;;;16.52;58.78
62600;BME280;48671;48.922;2.346;2023-05-21T06:24:26;101424.97;;;16.52;58.82
62600;BME280;48671;48.922;2.346;2023-05-21T06:26:52;101430.28;;;16.51;59.22
62600;BME280;48671;48.922;2.346;2023-05-21T06:29:17;101419.09;;;16.47;58.95
62600;BME280;48671;48.922;2.346;2023-05-21T06:31:43;101429.59;;;16.47;59.27
62600;BME280;48671;48.922;2.346;2023-05-21T06:34:08;101422.50;;;16.49;59.26
62600;BME280;48671;48.922;2.346;2023-05-21T06:36:35;101422.88;;;16.59;58.87
62600;BME280;48671;48.922;2.346;2023-05-21T06:39:01;101433.81;;;16.67;59.08
62600;BME280;48671;48.922;2.346;2023-05-21T06:41:27;101441.69;;;16.84;59.32
62600;BME280;48671;48.922;2.346;2023-05-21T06:43:52;101434.91;;;16.96;58.69
62600;BME280;48671;48.922;2.346;2023-05-21T06:46:18;101441.47;;;17.05;58.52
62600;BME280;48671;48.922;2.346;2023-05-21T06:48:43;101433.31;;;17.09;58.26
62600;BME280;48671;48.922;2.346;2023-05-21T06:51:09;101445.13;;;17.18;58.23
62600;BME280;48671;48.922;2.346;2023-05-21T06:53:35;101448.53;;;17.20;57.99
62600;BME280;48671;48.922;2.346;2023-05-21T06:56:00;101438.75;;;17.22;57.97
62600;BME280;48671;48.922;2.346;2023-05-21T06:58:25;101436.28;;;17.19;57.67
62600;BME280;48671;48.922;2.346;2023-05-21T07:00:55;101431.22;;;17.32;57.51
62600;BME280;48671;48.922;2.346;2023-05-21T07:03:20;101426.56;;;17.37;57.46
62600;BME280;48671;48.922;2.346;2023-05-21T07:05:46;101432.31;;;17.44;57.43
62600;BME280;48671;48.922;2.346;2023-05-21T07:08:11;101439.88;;;17.50;57.94
62600;BME280;48671;48.922;2.346;2023-05-21T07:10:37;101434.44;;;17.53;57.25
62600;BME280;48671;48.922;2.346;2023-05-21T07:13:02;101435.13;;;17.57;56.86
62600;BME280;48671;48.922;2.346;2023-05-21T07:15:27;101426.09;;;17.61;57.37
62600;BME280;48671;48.922;2.346;2023-05-21T07:17:53;101432.53;;;17.71;56.97
62600;BME280;48671;48.922;2.346;2023-05-21T07:20:18;101437.13;;;17.83;57.03
62600;BME280;48671;48.922;2.346;2023-05-21T07:22:43;101442.44;;;17.97;56.63
62600;BME280;48671;48.922;2.346;2023-05-21T07:25:12;101440.53;;;18.15;56.33
62600;BME280;48671;48.922;2.346;2023-05-21T07:27:37;101433.38;;;18.17;55.89
62600;BME280;48671;48.922;2.346;2023-05-21T07:30:03;101434.34;;;18.31;56.01
62600;BME280;48671;48.922;2.346;2023-05-21T07:32:28;101435.41;;;18.42;55.35
62600;BME280;48671;48.922;2.346;2023-05-21T07:34:54;101437.25;;;18.40;55.27
62600;BME280;48671;48.922;2.346;2023-05-21T07:37:20;101422.59;;;18.36;55.01
62600;BME280;48671;48.922;2.346;2023-05-21T07:39:46;101430.78;;;18.46;55.25
62600;BME280;48671;48.922;2.346;2023-05-21T07:42:11;101438.81;;;18.59;54.83
62600;BME280;48671;48.922;2.346;2023-05-21T07:44:36;101422.25;;;18.71;54.48
62600;BME280;48671;48.922;2.346;2023-05-21T07:47:02;101422.94;;;18.75;54.65
62600;BME280;48671;48.922;2.346;2023-05-21T07:49:27;101425.19;;;18.81;53.93
62600;BME280;48671;48.922;2.346;2023-05-21T07:51:52;101421.97;;;18.90;54.10
62600;BME280;48671;48.922;2.346;2023-05-21T07:54:18;101428.47;;;18.99;54.04
62600;BME280;48671;48.922;2.346;2023-05-21T07:56:43;101434.94;;;19.07;54.25
62600;BME280;48671;48.922;2.346;2023-05-21T07:59:09;101431.53;;;19.20;53.40
62600;BME280;48671;48.922;2.346;2023-05-21T08:01:34;101438.13;;;19.27;53.62
62600;BME280;48671;48.922;2.346;2023-05-21T08:04:01;101425.84;;;19.26;52.75
62600;BME280;48671;48.922;2.346;2023-05-21T08:06:30;101424.13;;;19.39;53.38
62600;BME280;48671;48.922;2.346;2023-05-21T08:08:59;101427.78;;;19.51;52.40
62600;BME280;48671;48.922;2.346;2023-05-21T08:11:25;101428.34;;;19.56;52.77
62600;BME280;48671;48.922;2.346;2023-05-21T08:13:51;101435.91;;;19.75;52.17
62600;BME280;48671;48.922;2.346;2023-05-21T08:16:16;101420.72;;;19.78;51.98
62600;BME280;48671;48.922;2.346;2023-05-21T08:18:41;101417.38;;;19.89;51.75
62600;BME280;48671;48.922;2.346;2023-05-21T08:21:08;101414.97;;;19.99;51.63
62600;BME280;48671;48.922;2.346;2023-05-21T08:23:33;101408.31;;;20.06;51.28
62600;BME280;48671;48.922;2.346;2023-05-21T08:25:59;101404.28;;;20.13;51.38
62600;BME280;48671;48.922;2.346;2023-05-21T08:28:24;101418.06;;;20.31;51.09
62600;BME280;48671;48.922;2.346;2023-05-21T08:30:51;101409.47;;;20.40;50.86
62600;BME280;48671;48.922;2.346;2023-05-21T08:33:17;101397.44;;;20.36;49.67
62600;BME280;48671;48.922;2.346;2023-05-21T08:35:42;101399.34;;;20.34;49.63
62600;BME280;48671;48.922;2.346;2023-05-21T08:38:07;101408.13;;;20.34;49.09
62600;BME280;48671;48.922;2.346;2023-05-21T08:40:33;101409.38;;;20.42;49.38
62600;BME280;48671;48.922;2.346;2023-05-21T08:43:00;101410.88;;;20.46;48.73
62600;BME280;48671;48.922;2.346;2023-05-21T08:45:25;101393.34;;;20.57;48.88
62600;BME280;48671;48.922;2.346;2023-05-21T08:47:55;101408.88;;;20.75;49.20
62600;BME280;48671;48.922;2.346;2023-05-21T08:50:23;101411.28;;;20.91;48.38
62600;BME280;48671;48.922;2.346;2023-05-21T08:52:50;101387.56;;;20.89;48.18
62600;BME280;48671;48.922;2.346;2023-05-21T08:55:16;101397.47;;;20.98;48.61
62600;BME280;48671;48.922;2.346;2023-05-21T08:57:42;101417.78;;;21.11;48.09
62600;BME280;48671;48.922;2.346;2023-05-21T09:00:09;101414.13;;;21.24;47.26
62600;BME280;48671;48.922;2.346;2023-05-21T09:02:36;101411.03;;;21.31;47.49
62600;BME280;48671;48.922;2.346;2023-05-21T09:05:05;101408.72;;;21.39;46.91
62600;BME280;48671;48.922;2.346;2023-05-21T09:07:37;101419.00;;;21.55;46.62
62600;BME280;48671;48.922;2.346;2023-05-21T09:10:06;101413.50;;;21.58;45.75
62600;BME280;48671;48.922;2.346;2023-05-21T09:12:34;101414.22;;;21.60;45.90
62600;BME280;48671;48.922;2.346;2023-05-21T09:15:00;101404.03;;;21.66;45.99
62600;BME280;48671;48.922;2.346;2023-05-21T09:17:26;101392.59;;;21.66;46.13
62600;BME280;48671;48.922;2.346;2023-05-21T09:20:27;101416.81;;;21.72;45.75
62600;BME280;48671;48.922;2.346;2023-05-21T09:22:53;101399.09;;;21.62;46.05
62600;BME280;48671;48.922;2.346;2023-05-21T09:25:23;101406.06;;;21.63;45.70
62600;BME280;48671;48.922;2.346;2023-05-21T09:27:48;101415.75;;;21.75;46.36
62600;BME280;48671;48.922;2.346;2023-05-21T09:30:16;101417.22;;;21.90;46.11
62600;BME280;48671;48.922;2.346;2023-05-21T09:32:43;101406.22;;;22.08;46.30
62600;BME280;48671;48.922;2.346;2023-05-21T09:35:11;101408.66;;;22.22;46.10
62600;BME280;48671;48.922;2.346;2023-05-21T09:37:43;101392.31;;;22.28;45.69
62600;BME280;48671;48.922;2.346;2023-05-21T09:40:19;101400.38;;;22.38;44.46
62600;BME280;48671;48.922;2.346;2023-05-21T09:42:49;101398.56;;;22.27;45.17
62600;BME280;48671;48.922;2.346;2023-05-21T09:45:23;101399.78;;;22.34;44.97
62600;BME280;48671;48.922;2.346;2023-05-21T09:47:49;101402.31;;;22.47;45.39
62600;BME280;48671;48.922;2.346;2023-05-21T09:50:22;101406.78;;;22.58;45.68
62600;BME280;48671;48.922;2.346;2023-05-21T09:52:49;101393.38;;;22.59;44.74
62600;BME280;48671;48.922;2.346;2023-05-21T09:55:18;101400.03;;;22.65;44.99
62600;BME280;48671;48.922;2.346;2023-05-21T09:57:47;101396.16;;;22.80;44.76
62600;BME280;48671;48.922;2.346;2023-05-21T10:00:22;101380.00;;;22.72;44.22
62600;BME280;48671;48.922;2.346;2023-05-21T10:02:53;101377.47;;;22.82;44.95
62600;BME280;48671;48.922;2.346;2023-05-21T10:05:19;101371.41;;;22.91;43.31
62600;BME280;48671;48.922;2.346;2023-05-21T10:07:49;101378.78;;;22.87;44.22
62600;BME280;48671;48.922;2.346;2023-05-21T10:10:20;101375.19;;;23.00;43.31
62600;BME280;48671;48.922;2.346;2023-05-21T10:12:52;101375.03;;;23.12;42.93
62600;BME280;48671;48.922;2.346;2023-05-21T10:15:22;101357.75;;;23.18;42.61
62600;BME280;48671;48.922;2.346;2023-05-21T10:17:48;101365.47;;;23.21;43.10
62600;BME280;48671;48.922;2.346;2023-05-21T10:20:13;101376.91;;;23.33;43.43
62600;BME280;48671;48.922;2.346;2023-05-21T10:22:39;101360.97;;;23.33;42.89
62600;BME280;48671;48.922;2.346;2023-05-21T10:25:06;101358.34;;;23.54;42.77
62600;BME280;48671;48.922;2.346;2023-05-21T10:27:33;101367.47;;;23.72;42.57
62600;BME280;48671;48.922;2.346;2023-05-21T10:29:59;101360.97;;;23.65;41.97
62600;BME280;48671;48.922;2.346;2023-05-21T10:32:26;101368.56;;;23.70;42.28
62600;BME280;48671;48.922;2.346;2023-05-21T10:34:55;101375.72;;;23.58;42.45
62600;BME280;48671;48.922;2.346;2023-05-21T10:37:23;101366.53;;;23.62;42.44
62600;BME280;48671;48.922;2.346;2023-05-21T10:39:49;101360.81;;;23.67;42.59
62600;BME280;48671;48.922;2.346;2023-05-21T10:44:59;101372.13;;;23.80;42.15
62600;BME280;48671;48.922;2.346;2023-05-21T10:47:57;101362.88;;;23.95;41.95
62600;BME280;48671;48.922;2.346;2023-05-21T10:50:49;101364.34;;;24.09;41.54
62600;BME280;48671;48.922;2.346;2023-05-21T11:00:52;101348.47;;;24.49;41.16
62600;BME280;48671;48.922;2.346;2023-05-21T11:03:19;101367.50;;;24.45;40.64
62600;BME280;48671;48.922;2.346;2023-05-21T11:05:55;101335.94;;;24.40;40.45
62600;BME280;48671;48.922;2.346;2023-05-21T11:10:54;101361.72;;;24.70;40.04
62600;BME280;48671;48.922;2.346;2023-05-21T11:13:21;101352.88;;;24.70;41.01
62600;BME280;48671;48.922;2.346;2023-05-21T11:21:12;101337.69;;;25.11;40.39
62600;BME280;48671;48.922;2.346;2023-05-21T11:23:50;101327.78;;;25.22;39.76
62600;BME280;48671;48.922;2.346;2023-05-21T11:26:17;101342.38;;;25.48;38.60
62600;BME280;48671;48.922;2.346;2023-05-21T11:28:42;101333.38;;;25.39;38.32
62600;BME280;48671;48.922;2.346;2023-05-21T11:33:46;101338.44;;;25.42;38.50
62600;BME280;48671;48.922;2.346;2023-05-21T11:36:12;101342.22;;;25.39;38.21
62600;BME280;48671;48.922;2.346;2023-05-21T11:38:37;101322.16;;;25.45;38.02
62600;BME280;48671;48.922;2.346;2023-05-21T11:41:03;101332.00;;;25.44;38.20
62600;BME280;48671;48.922;2.346;2023-05-21T11:43:28;101339.09;;;25.63;37.78
62600;BME280;48671;48.922;2.346;2023-05-21T11:45:54;101321.03;;;25.67;38.33
62600;BME280;48671;48.922;2.346;2023-05-21T11:48:25;101328.69;;;25.80;37.91
62600;BME280;48671;48.922;2.346;2023-05-21T11:50:51;101322.13;;;25.94;37.36
62600;BME280;48671;48.922;2.346;2023-05-21T11:53:17;101322.44;;;25.81;37.47
62600;BME280;48671;48.922;2.346;2023-05-21T11:55:42;101322.56;;;25.50;37.95
62600;BME280;48671;48.922;2.346;2023-05-21T11:58:12;101317.38;;;25.58;37.63
62600;BME280;48671;48.922;2.346;2023-05-21T12:00:39;101320.44;;;25.73;38.02
62600;BME280;48671;48.922;2.346;2023-05-21T12:03:04;101314.56;;;25.69;38.34
62600;BME280;48671;48.922;2.346;2023-05-21T12:05:43;101321.59;;;25.61;37.71
62600;BME280;48671;48.922;2.346;2023-05-21T12:08:08;101319.19;;;25.77;38.69
62600;BME280;48671;48.922;2.346;2023-05-21T12:10:36;101305.22;;;26.03;38.07
62600;BME280;48671;48.922;2.346;2023-05-21T12:13:03;101303.03;;;26.26;36.72
62600;BME280;48671;48.922;2.346;2023-05-21T12:15:29;101315.41;;;26.27;36.91
62600;BME280;48671;48.922;2.346;2023-05-21T12:17:54;101314.19;;;26.11;36.76
62600;BME280;48671;48.922;2.346;2023-05-21T12:20:20;101312.31;;;25.75;37.62
62600;BME280;48671;48.922;2.346;2023-05-21T12:22:47;101322.84;;;25.47;37.22
62600;BME280;48671;48.922;2.346;2023-05-21T12:25:13;101309.97;;;25.52;37.97
62600;BME280;48671;48.922;2.346;2023-05-21T12:27:38;101316.41;;;25.50;37.56
62600;BME280;48671;48.922;2.346;2023-05-21T12:30:08;101321.06;;;25.48;37.89
62600;BME280;48671;48.922;2.346;2023-05-21T12:32:33;101315.28;;;25.42;37.38
62600;BME280;48671;48.922;2.346;2023-05-21T12:34:59;101303.53;;;25.45;37.22
62600;BME280;48671;48.922;2.346;2023-05-21T12:37:26;101324.97;;;25.24;37.85
62600;BME280;48671;48.922;2.346;2023-05-21T12:39:53;101305.59;;;24.93;38.37
62600;BME280;48671;48.922;2.346;2023-05-21T12:42:29;101287.63;;;24.95;38.72
62600;BME280;48671;48.922;2.346;2023-05-21T12:44:55;101312.47;;;25.44;38.63
62600;BME280;48671;48.922;2.346;2023-05-21T12:47:25;101290.47;;;25.61;37.59
62600;BME280;48671;48.922;2.346;2023-05-21T12:49:53;101302.56;;;26.03;37.56
62600;BME280;48671;48.922;2.346;2023-05-21T12:52:21;101293.47;;;26.33;37.17
62600;BME280;48671;48.922;2.346;2023-05-21T12:54:49;101288.53;;;26.38;37.11
62600;BME280;48671;48.922;2.346;2023-05-21T12:57:18;101299.06;;;26.67;36.56
62600;BME280;48671;48.922;2.346;2023-05-21T12:59:50;101302.78;;;26.56;36.62
62600;BME280;48671;48.922;2.346;2023-05-21T13:02:33;101298.75;;;26.43;36.95
62600;BME280;48671;48.922;2.346;2023-05-21T13:07:26;101290.56;;;26.26;37.70
62600;BME280;48671;48.922;2.346;2023-05-21T13:09:53;101298.16;;;26.21;36.82
62600;BME280;48671;48.922;2.346;2023-05-21T13:12:21;101278.06;;;26.27;37.50
62600;BME280;48671;48.922;2.346;2023-05-21T13:14:51;101297.28;;;26.30;36.63
62600;BME280;48671;48.922;2.346;2023-05-21T13:17:17;101298.66;;;25.97;36.78